Lubbock, Texas
Current Conditions -  °F | °C
As of 12:53 PM on Monday 20 Oct 2014 (Local Time) from KLBB Reporting Station
Scattered Clouds Scattered Clouds  
Wind Chill: 74°   Ceiling: Unl
Heat Index: 74°   Visibility: 10mi
Dew Point: 56°   Wind: 5mph
Humidity: 53%   Direction: NA
Pressure: 30.13"   Gusts: NA
Location:  33.59°N, 101.85°W
Report Text: KLBB 201753Z VRB04KT 10SM SCT031 23/13 A3013 RMK AO2 SLP162 T02330133 10239 20100 58007
Loading
Personal Weather Stations






























Interactive Weather Map
Tropical Storm Tracking
New forecast layout! Learn more

10-Day Weather Forecast

Advertisements
Track Severe Weather on mobile